sensor_id;sensor_type;location;lat;lon;timestamp;P1;durP1;ratioP1;P2;durP2;ratioP2
58756;SDS011;44527;47.460;19.016;2024-02-15T00:00:42;23.35;;;9.70;;
58756;SDS011;44527;47.460;19.016;2024-02-15T00:03:45;20.08;;;9.75;;
58756;SDS011;44527;47.460;19.016;2024-02-15T00:06:48;21.17;;;9.05;;
58756;SDS011;44527;47.460;19.016;2024-02-15T00:09:50;23.38;;;9.07;;
58756;SDS011;44527;47.460;19.016;2024-02-15T00:12:53;18.48;;;8.68;;
58756;SDS011;44527;47.460;19.016;2024-02-15T00:15:55;18.55;;;8.57;;
58756;SDS011;44527;47.460;19.016;2024-02-15T00:18:58;23.17;;;9.60;;
58756;SDS011;44527;47.460;19.016;2024-02-15T00:22:02;22.45;;;9.75;;
58756;SDS011;44527;47.460;19.016;2024-02-15T00:25:04;20.55;;;9.60;;
58756;SDS011;44527;47.460;19.016;2024-02-15T00:28:08;18.02;;;8.65;;
58756;SDS011;44527;47.460;19.016;2024-02-15T00:31:10;23.87;;;8.48;;
58756;SDS011;44527;47.460;19.016;2024-02-15T00:34:13;21.20;;;8.50;;
58756;SDS011;44527;47.460;19.016;2024-02-15T00:37:16;18.25;;;7.95;;
58756;SDS011;44527;47.460;19.016;2024-02-15T00:40:19;23.87;;;8.07;;
58756;SDS011;44527;47.460;19.016;2024-02-15T00:43:21;19.27;;;7.90;;
58756;SDS011;44527;47.460;19.016;2024-02-15T00:46:24;15.23;;;7.18;;
58756;SDS011;44527;47.460;19.016;2024-02-15T00:49:30;16.10;;;8.02;;
58756;SDS011;44527;47.460;19.016;2024-02-15T00:52:34;16.08;;;7.62;;
58756;SDS011;44527;47.460;19.016;2024-02-15T00:55:36;18.37;;;8.20;;
58756;SDS011;44527;47.460;19.016;2024-02-15T00:58:39;14.93;;;7.85;;
58756;SDS011;44527;47.460;19.016;2024-02-15T01:01:41;15.00;;;8.15;;
58756;SDS011;44527;47.460;19.016;2024-02-15T01:04:44;16.87;;;7.45;;
58756;SDS011;44527;47.460;19.016;2024-02-15T01:07:48;16.30;;;8.77;;
58756;SDS011;44527;47.460;19.016;2024-02-15T01:10:53;17.33;;;7.72;;
58756;SDS011;44527;47.460;19.016;2024-02-15T01:13:56;13.30;;;7.53;;
58756;SDS011;44527;47.460;19.016;2024-02-15T01:16:58;14.68;;;8.43;;
58756;SDS011;44527;47.460;19.016;2024-02-15T01:20:01;11.88;;;7.35;;
58756;SDS011;44527;47.460;19.016;2024-02-15T01:23:03;21.62;;;8.23;;
58756;SDS011;44527;47.460;19.016;2024-02-15T01:26:09;17.52;;;8.05;;
58756;SDS011;44527;47.460;19.016;2024-02-15T01:29:14;19.95;;;8.15;;
58756;SDS011;44527;47.460;19.016;2024-02-15T01:32:16;20.05;;;8.20;;
58756;SDS011;44527;47.460;19.016;2024-02-15T01:35:22;18.25;;;8.25;;
58756;SDS011;44527;47.460;19.016;2024-02-15T01:38:24;21.62;;;7.53;;
58756;SDS011;44527;47.460;19.016;2024-02-15T01:41:27;18.10;;;8.43;;
58756;SDS011;44527;47.460;19.016;2024-02-15T01:44:29;20.67;;;8.65;;
58756;SDS011;44527;47.460;19.016;2024-02-15T01:47:32;18.45;;;8.40;;
58756;SDS011;44527;47.460;19.016;2024-02-15T01:50:34;20.67;;;8.70;;
58756;SDS011;44527;47.460;19.016;2024-02-15T01:53:38;14.90;;;8.18;;
58756;SDS011;44527;47.460;19.016;2024-02-15T01:56:43;19.42;;;9.82;;
58756;SDS011;44527;47.460;19.016;2024-02-15T01:59:46;21.45;;;9.52;;
58756;SDS011;44527;47.460;19.016;2024-02-15T02:02:49;22.45;;;8.70;;
58756;SDS011;44527;47.460;19.016;2024-02-15T02:05:53;32.25;;;9.55;;
58756;SDS011;44527;47.460;19.016;2024-02-15T02:08:56;14.85;;;8.98;;
58756;SDS011;44527;47.460;19.016;2024-02-15T02:12:00;21.15;;;8.77;;
58756;SDS011;44527;47.460;19.016;2024-02-15T02:15:02;16.10;;;8.57;;
58756;SDS011;44527;47.460;19.016;2024-02-15T02:18:05;18.75;;;8.63;;
58756;SDS011;44527;47.460;19.016;2024-02-15T02:21:12;15.88;;;7.68;;
58756;SDS011;44527;47.460;19.016;2024-02-15T02:24:17;20.20;;;8.60;;
58756;SDS011;44527;47.460;19.016;2024-02-15T02:27:24;23.30;;;8.90;;
58756;SDS011;44527;47.460;19.016;2024-02-15T02:30:32;15.88;;;7.68;;
58756;SDS011;44527;47.460;19.016;2024-02-15T02:33:34;19.50;;;7.37;;
58756;SDS011;44527;47.460;19.016;2024-02-15T02:36:37;12.02;;;7.40;;
58756;SDS011;44527;47.460;19.016;2024-02-15T02:39:39;18.80;;;8.23;;
58756;SDS011;44527;47.460;19.016;2024-02-15T02:42:52;11.20;;;6.97;;
58756;SDS011;44527;47.460;19.016;2024-02-15T02:45:58;12.85;;;7.43;;
58756;SDS011;44527;47.460;19.016;2024-02-15T02:49:00;18.42;;;7.20;;
58756;SDS011;44527;47.460;19.016;2024-02-15T02:52:03;17.58;;;7.57;;
58756;SDS011;44527;47.460;19.016;2024-02-15T02:55:06;16.50;;;7.47;;
58756;SDS011;44527;47.460;19.016;2024-02-15T02:58:10;16.12;;;7.53;;
58756;SDS011;44527;47.460;19.016;2024-02-15T03:01:12;12.90;;;7.30;;
58756;SDS011;44527;47.460;19.016;2024-02-15T03:04:15;15.20;;;7.60;;
58756;SDS011;44527;47.460;19.016;2024-02-15T03:07:20;19.02;;;7.45;;
58756;SDS011;44527;47.460;19.016;2024-02-15T03:10:25;13.27;;;7.28;;
58756;SDS011;44527;47.460;19.016;2024-02-15T03:13:28;19.12;;;7.95;;
58756;SDS011;44527;47.460;19.016;2024-02-15T03:16:31;16.80;;;8.02;;
58756;SDS011;44527;47.460;19.016;2024-02-15T03:19:34;16.35;;;7.75;;
58756;SDS011;44527;47.460;19.016;2024-02-15T03:22:36;15.23;;;7.57;;
58756;SDS011;44527;47.460;19.016;2024-02-15T03:25:40;23.70;;;8.82;;
58756;SDS011;44527;47.460;19.016;2024-02-15T03:28:42;19.98;;;7.93;;
58756;SDS011;44527;47.460;19.016;2024-02-15T03:31:46;16.20;;;7.50;;
58756;SDS011;44527;47.460;19.016;2024-02-15T03:34:49;24.48;;;9.52;;
58756;SDS011;44527;47.460;19.016;2024-02-15T03:37:52;15.65;;;7.95;;
58756;SDS011;44527;47.460;19.016;2024-02-15T03:40:55;17.10;;;7.82;;
58756;SDS011;44527;47.460;19.016;2024-02-15T03:43:58;16.10;;;7.57;;
58756;SDS011;44527;47.460;19.016;2024-02-15T03:47:01;15.48;;;7.65;;
58756;SDS011;44527;47.460;19.016;2024-02-15T03:50:04;15.10;;;7.50;;
58756;SDS011;44527;47.460;19.016;2024-02-15T03:53:09;16.30;;;8.40;;
58756;SDS011;44527;47.460;19.016;2024-02-15T03:56:13;21.67;;;9.35;;
58756;SDS011;44527;47.460;19.016;2024-02-15T03:59:15;18.90;;;8.27;;
58756;SDS011;44527;47.460;19.016;2024-02-15T04:02:18;22.37;;;9.43;;
58756;SDS011;44527;47.460;19.016;2024-02-15T04:05:21;16.60;;;7.70;;
58756;SDS011;44527;47.460;19.016;2024-02-15T04:08:25;16.33;;;7.78;;
58756;SDS011;44527;47.460;19.016;2024-02-15T04:11:27;18.83;;;9.10;;
58756;SDS011;44527;47.460;19.016;2024-02-15T04:14:30;15.15;;;7.90;;
58756;SDS011;44527;47.460;19.016;2024-02-15T04:17:35;21.58;;;8.38;;
58756;SDS011;44527;47.460;19.016;2024-02-15T04:20:38;24.23;;;8.82;;
58756;SDS011;44527;47.460;19.016;2024-02-15T04:23:40;18.65;;;8.88;;
58756;SDS011;44527;47.460;19.016;2024-02-15T04:26:43;20.45;;;9.43;;
58756;SDS011;44527;47.460;19.016;2024-02-15T04:29:46;17.62;;;8.38;;
58756;SDS011;44527;47.460;19.016;2024-02-15T04:32:48;16.60;;;8.48;;
58756;SDS011;44527;47.460;19.016;2024-02-15T04:35:51;22.08;;;8.95;;
58756;SDS011;44527;47.460;19.016;2024-02-15T04:38:53;14.80;;;8.57;;
58756;SDS011;44527;47.460;19.016;2024-02-15T04:41:56;17.67;;;7.10;;
58756;SDS011;44527;47.460;19.016;2024-02-15T04:44:58;12.40;;;7.50;;
58756;SDS011;44527;47.460;19.016;2024-02-15T04:48:01;12.90;;;7.10;;
58756;SDS011;44527;47.460;19.016;2024-02-15T04:51:06;17.05;;;7.03;;
58756;SDS011;44527;47.460;19.016;2024-02-15T04:54:09;13.62;;;6.85;;
58756;SDS011;44527;47.460;19.016;2024-02-15T04:57:15;19.70;;;7.62;;
58756;SDS011;44527;47.460;19.016;2024-02-15T05:00:19;11.90;;;6.78;;
58756;SDS011;44527;47.460;19.016;2024-02-15T05:03:23;14.50;;;7.15;;
58756;SDS011;44527;47.460;19.016;2024-02-15T05:06:26;13.80;;;6.40;;
58756;SDS011;44527;47.460;19.016;2024-02-15T05:09:31;11.52;;;6.37;;
58756;SDS011;44527;47.460;19.016;2024-02-15T05:12:34;15.43;;;7.03;;
58756;SDS011;44527;47.460;19.016;2024-02-15T05:15:37;18.15;;;7.43;;
58756;SDS011;44527;47.460;19.016;2024-02-15T05:18:40;17.62;;;6.97;;
58756;SDS011;44527;47.460;19.016;2024-02-15T05:21:44;13.80;;;7.72;;
58756;SDS011;44527;47.460;19.016;2024-02-15T05:24:48;19.33;;;8.93;;
58756;SDS011;44527;47.460;19.016;2024-02-15T05:27:50;16.23;;;8.30;;
58756;SDS011;44527;47.460;19.016;2024-02-15T05:31:08;16.40;;;8.05;;
58756;SDS011;44527;47.460;19.016;2024-02-15T05:34:19;16.00;;;8.10;;
58756;SDS011;44527;47.460;19.016;2024-02-15T05:37:22;17.33;;;7.53;;
58756;SDS011;44527;47.460;19.016;2024-02-15T05:40:25;16.83;;;7.80;;
58756;SDS011;44527;47.460;19.016;2024-02-15T05:43:27;16.90;;;8.23;;
58756;SDS011;44527;47.460;19.016;2024-02-15T05:46:30;17.00;;;8.10;;
58756;SDS011;44527;47.460;19.016;2024-02-15T05:49:33;20.17;;;9.55;;
58756;SDS011;44527;47.460;19.016;2024-02-15T05:52:35;19.55;;;10.77;;
58756;SDS011;44527;47.460;19.016;2024-02-15T05:55:41;23.95;;;10.00;;
58756;SDS011;44527;47.460;19.016;2024-02-15T05:58:46;19.67;;;10.35;;
58756;SDS011;44527;47.460;19.016;2024-02-15T06:01:49;23.38;;;11.90;;
58756;SDS011;44527;47.460;19.016;2024-02-15T06:04:52;22.48;;;12.00;;
58756;SDS011;44527;47.460;19.016;2024-02-15T06:07:55;25.77;;;12.52;;
58756;SDS011;44527;47.460;19.016;2024-02-15T06:11:00;24.87;;;12.18;;
58756;SDS011;44527;47.460;19.016;2024-02-15T06:14:06;29.12;;;13.13;;
58756;SDS011;44527;47.460;19.016;2024-02-15T06:17:08;25.92;;;11.32;;
58756;SDS011;44527;47.460;19.016;2024-02-15T06:20:13;28.02;;;10.68;;
58756;SDS011;44527;47.460;19.016;2024-02-15T06:23:17;31.00;;;10.55;;
58756;SDS011;44527;47.460;19.016;2024-02-15T06:26:20;39.83;;;14.77;;
58756;SDS011;44527;47.460;19.016;2024-02-15T06:29:23;51.53;;;16.12;;
58756;SDS011;44527;47.460;19.016;2024-02-15T06:32:44;41.00;;;16.75;;
58756;SDS011;44527;47.460;19.016;2024-02-15T06:36:09;41.97;;;16.35;;
58756;SDS011;44527;47.460;19.016;2024-02-15T06:39:39;39.03;;;18.67;;
58756;SDS011;44527;47.460;19.016;2024-02-15T06:42:57;44.28;;;18.62;;
58756;SDS011;44527;47.460;19.016;2024-02-15T06:46:00;45.47;;;18.05;;
58756;SDS011;44527;47.460;19.016;2024-02-15T06:49:05;57.35;;;18.73;;
58756;SDS011;44527;47.460;19.016;2024-02-15T06:52:08;38.95;;;17.70;;
58756;SDS011;44527;47.460;19.016;2024-02-15T06:55:11;58.15;;;19.27;;
58756;SDS011;44527;47.460;19.016;2024-02-15T06:58:17;36.65;;;19.52;;
58756;SDS011;44527;47.460;19.016;2024-02-15T07:01:23;37.72;;;18.70;;
58756;SDS011;44527;47.460;19.016;2024-02-15T07:11:53;36.53;;;18.12;;
58756;SDS011;44527;47.460;19.016;2024-02-15T07:14:56;42.35;;;19.17;;
58756;SDS011;44527;47.460;19.016;2024-02-15T07:17:58;34.53;;;18.50;;
58756;SDS011;44527;47.460;19.016;2024-02-15T07:21:03;33.22;;;18.75;;
58756;SDS011;44527;47.460;19.016;2024-02-15T07:24:13;41.53;;;18.45;;
58756;SDS011;44527;47.460;19.016;2024-02-15T07:27:16;35.05;;;18.37;;
58756;SDS011;44527;47.460;19.016;2024-02-15T07:30:20;40.30;;;18.70;;
58756;SDS011;44527;47.460;19.016;2024-02-15T07:33:27;35.47;;;18.25;;
58756;SDS011;44527;47.460;19.016;2024-02-15T07:36:33;38.78;;;18.83;;
58756;SDS011;44527;47.460;19.016;2024-02-15T07:39:36;33.70;;;16.98;;
58756;SDS011;44527;47.460;19.016;2024-02-15T07:42:39;38.10;;;18.75;;
58756;SDS011;44527;47.460;19.016;2024-02-15T07:45:41;47.05;;;19.20;;
58756;SDS011;44527;47.460;19.016;2024-02-15T07:48:50;33.63;;;18.45;;
58756;SDS011;44527;47.460;19.016;2024-02-15T07:51:54;40.80;;;18.75;;
58756;SDS011;44527;47.460;19.016;2024-02-15T07:54:56;42.83;;;17.98;;
58756;SDS011;44527;47.460;19.016;2024-02-15T07:58:00;48.80;;;20.10;;
58756;SDS011;44527;47.460;19.016;2024-02-15T08:01:04;53.25;;;20.12;;
58756;SDS011;44527;47.460;19.016;2024-02-15T08:04:08;48.10;;;20.25;;
58756;SDS011;44527;47.460;19.016;2024-02-15T08:07:10;34.50;;;19.50;;
58756;SDS011;44527;47.460;19.016;2024-02-15T08:10:14;52.45;;;20.83;;
58756;SDS011;44527;47.460;19.016;2024-02-15T08:24:55;36.85;;;19.20;;
58756;SDS011;44527;47.460;19.016;2024-02-15T08:28:12;32.10;;;16.25;;
58756;SDS011;44527;47.460;19.016;2024-02-15T08:31:22;35.97;;;18.10;;
58756;SDS011;44527;47.460;19.016;2024-02-15T08:34:26;38.92;;;17.85;;
58756;SDS011;44527;47.460;19.016;2024-02-15T08:37:31;32.17;;;16.65;;
58756;SDS011;44527;47.460;19.016;2024-02-15T08:40:58;35.72;;;17.67;;
58756;SDS011;44527;47.460;19.016;2024-02-15T08:44:01;35.28;;;18.40;;
58756;SDS011;44527;47.460;19.016;2024-02-15T08:47:08;37.15;;;18.30;;
58756;SDS011;44527;47.460;19.016;2024-02-15T08:50:12;57.55;;;21.37;;
58756;SDS011;44527;47.460;19.016;2024-02-15T10:31:24;44.22;;;20.60;;
58756;SDS011;44527;47.460;19.016;2024-02-15T10:34:32;39.17;;;20.23;;
58756;SDS011;44527;47.460;19.016;2024-02-15T11:26:59;36.95;;;18.80;;
58756;SDS011;44527;47.460;19.016;2024-02-15T11:30:07;37.28;;;18.20;;
58756;SDS011;44527;47.460;19.016;2024-02-15T11:33:32;38.78;;;19.02;;
58756;SDS011;44527;47.460;19.016;2024-02-15T11:36:39;36.30;;;18.52;;
58756;SDS011;44527;47.460;19.016;2024-02-15T11:39:58;37.97;;;18.17;;
58756;SDS011;44527;47.460;19.016;2024-02-15T11:51:05;36.67;;;17.45;;
58756;SDS011;44527;47.460;19.016;2024-02-15T11:54:10;40.38;;;18.67;;
58756;SDS011;44527;47.460;19.016;2024-02-15T12:00:58;30.80;;;16.58;;
58756;SDS011;44527;47.460;19.016;2024-02-15T12:04:20;29.77;;;16.95;;
58756;SDS011;44527;47.460;19.016;2024-02-15T12:07:41;36.70;;;16.90;;
58756;SDS011;44527;47.460;19.016;2024-02-15T12:11:04;31.40;;;16.48;;
58756;SDS011;44527;47.460;19.016;2024-02-15T12:15:13;33.53;;;18.30;;
58756;SDS011;44527;47.460;19.016;2024-02-15T12:18:38;37.38;;;17.73;;
58756;SDS011;44527;47.460;19.016;2024-02-15T13:06:51;20.92;;;10.85;;
58756;SDS011;44527;47.460;19.016;2024-02-15T13:09:54;22.37;;;10.65;;
58756;SDS011;44527;47.460;19.016;2024-02-15T13:12:57;22.20;;;9.63;;
58756;SDS011;44527;47.460;19.016;2024-02-15T13:16:01;23.08;;;10.93;;
58756;SDS011;44527;47.460;19.016;2024-02-15T13:19:04;21.67;;;12.15;;
58756;SDS011;44527;47.460;19.016;2024-02-15T13:22:09;25.40;;;12.68;;
58756;SDS011;44527;47.460;19.016;2024-02-15T13:25:13;23.12;;;13.70;;
58756;SDS011;44527;47.460;19.016;2024-02-15T13:28:20;25.98;;;14.38;;
58756;SDS011;44527;47.460;19.016;2024-02-15T13:31:23;28.60;;;14.57;;
58756;SDS011;44527;47.460;19.016;2024-02-15T13:34:25;30.20;;;13.98;;
58756;SDS011;44527;47.460;19.016;2024-02-15T13:37:28;36.80;;;15.55;;
58756;SDS011;44527;47.460;19.016;2024-02-15T13:40:34;27.85;;;15.15;;
58756;SDS011;44527;47.460;19.016;2024-02-15T13:43:37;31.75;;;15.93;;
58756;SDS011;44527;47.460;19.016;2024-02-15T13:46:41;29.45;;;15.57;;
58756;SDS011;44527;47.460;19.016;2024-02-15T13:49:45;25.67;;;15.68;;
58756;SDS011;44527;47.460;19.016;2024-02-15T13:52:47;27.98;;;15.25;;
58756;SDS011;44527;47.460;19.016;2024-02-15T13:55:50;30.25;;;16.05;;
58756;SDS011;44527;47.460;19.016;2024-02-15T13:58:55;32.80;;;15.30;;
58756;SDS011;44527;47.460;19.016;2024-02-15T14:02:04;28.77;;;14.50;;
58756;SDS011;44527;47.460;19.016;2024-02-15T14:05:07;27.13;;;13.95;;
58756;SDS011;44527;47.460;19.016;2024-02-15T14:08:12;32.78;;;15.45;;
58756;SDS011;44527;47.460;19.016;2024-02-15T14:11:15;35.60;;;14.82;;
58756;SDS011;44527;47.460;19.016;2024-02-15T14:14:18;28.73;;;14.30;;
58756;SDS011;44527;47.460;19.016;2024-02-15T14:17:20;33.55;;;13.82;;
58756;SDS011;44527;47.460;19.016;2024-02-15T14:20:22;21.98;;;12.82;;
58756;SDS011;44527;47.460;19.016;2024-02-15T14:23:25;24.15;;;12.73;;
58756;SDS011;44527;47.460;19.016;2024-02-15T14:26:32;30.95;;;14.07;;
58756;SDS011;44527;47.460;19.016;2024-02-15T14:29:35;32.55;;;14.43;;
58756;SDS011;44527;47.460;19.016;2024-02-15T14:32:43;23.92;;;14.35;;
58756;SDS011;44527;47.460;19.016;2024-02-15T14:36:08;32.20;;;15.48;;
58756;SDS011;44527;47.460;19.016;2024-02-15T14:39:11;31.23;;;14.30;;
58756;SDS011;44527;47.460;19.016;2024-02-15T14:42:15;29.05;;;14.52;;
58756;SDS011;44527;47.460;19.016;2024-02-15T14:45:20;27.35;;;14.25;;
58756;SDS011;44527;47.460;19.016;2024-02-15T14:48:25;30.02;;;15.25;;
58756;SDS011;44527;47.460;19.016;2024-02-15T14:51:28;42.78;;;14.82;;
58756;SDS011;44527;47.460;19.016;2024-02-15T14:54:32;32.83;;;15.63;;
58756;SDS011;44527;47.460;19.016;2024-02-15T14:57:36;27.20;;;15.52;;
58756;SDS011;44527;47.460;19.016;2024-02-15T15:00:43;33.10;;;16.20;;
58756;SDS011;44527;47.460;19.016;2024-02-15T15:03:54;27.48;;;14.90;;
58756;SDS011;44527;47.460;19.016;2024-02-15T15:06:57;28.77;;;15.52;;
58756;SDS011;44527;47.460;19.016;2024-02-15T15:10:18;31.05;;;15.40;;
58756;SDS011;44527;47.460;19.016;2024-02-15T15:13:40;37.75;;;16.27;;
58756;SDS011;44527;47.460;19.016;2024-02-15T15:16:43;35.08;;;16.02;;
58756;SDS011;44527;47.460;19.016;2024-02-15T15:19:46;27.30;;;15.07;;
58756;SDS011;44527;47.460;19.016;2024-02-15T15:22:49;31.80;;;16.70;;
58756;SDS011;44527;47.460;19.016;2024-02-15T15:25:53;34.80;;;16.77;;
58756;SDS011;44527;47.460;19.016;2024-02-15T15:28:56;35.90;;;16.08;;
58756;SDS011;44527;47.460;19.016;2024-02-15T15:31:59;37.85;;;16.37;;
58756;SDS011;44527;47.460;19.016;2024-02-15T15:35:02;29.65;;;15.45;;
58756;SDS011;44527;47.460;19.016;2024-02-15T15:38:05;34.20;;;16.23;;
58756;SDS011;44527;47.460;19.016;2024-02-15T15:41:07;34.30;;;16.92;;
58756;SDS011;44527;47.460;19.016;2024-02-15T15:44:11;31.98;;;14.82;;
58756;SDS011;44527;47.460;19.016;2024-02-15T15:47:14;36.83;;;16.33;;
58756;SDS011;44527;47.460;19.016;2024-02-15T15:50:16;29.58;;;15.80;;
58756;SDS011;44527;47.460;19.016;2024-02-15T15:53:19;35.03;;;15.85;;
58756;SDS011;44527;47.460;19.016;2024-02-15T15:56:22;39.67;;;16.65;;
58756;SDS011;44527;47.460;19.016;2024-02-15T15:59:24;33.40;;;16.50;;
58756;SDS011;44527;47.460;19.016;2024-02-15T16:02:27;37.80;;;16.73;;
58756;SDS011;44527;47.460;19.016;2024-02-15T16:05:30;34.70;;;16.55;;
58756;SDS011;44527;47.460;19.016;2024-02-15T16:08:33;31.80;;;16.98;;
58756;SDS011;44527;47.460;19.016;2024-02-15T16:11:37;34.05;;;17.08;;
58756;SDS011;44527;47.460;19.016;2024-02-15T16:14:40;32.50;;;17.83;;
58756;SDS011;44527;47.460;19.016;2024-02-15T16:17:43;39.45;;;19.27;;
58756;SDS011;44527;47.460;19.016;2024-02-15T16:20:45;34.42;;;19.52;;
58756;SDS011;44527;47.460;19.016;2024-02-15T16:23:48;47.60;;;20.00;;
58756;SDS011;44527;47.460;19.016;2024-02-15T16:26:51;41.80;;;20.52;;
58756;SDS011;44527;47.460;19.016;2024-02-15T16:29:56;41.37;;;19.27;;
58756;SDS011;44527;47.460;19.016;2024-02-15T16:32:58;39.53;;;18.92;;
58756;SDS011;44527;47.460;19.016;2024-02-15T16:36:01;36.15;;;18.42;;
58756;SDS011;44527;47.460;19.016;2024-02-15T16:39:04;45.00;;;18.23;;
58756;SDS011;44527;47.460;19.016;2024-02-15T16:42:09;40.45;;;19.58;;
58756;SDS011;44527;47.460;19.016;2024-02-15T16:45:17;36.05;;;20.40;;
58756;SDS011;44527;47.460;19.016;2024-02-15T16:48:22;36.97;;;19.67;;
58756;SDS011;44527;47.460;19.016;2024-02-15T16:51:24;38.08;;;20.00;;
58756;SDS011;44527;47.460;19.016;2024-02-15T16:54:29;38.53;;;19.58;;
58756;SDS011;44527;47.460;19.016;2024-02-15T16:57:32;37.30;;;19.50;;
58756;SDS011;44527;47.460;19.016;2024-02-15T17:00:36;37.00;;;19.70;;
58756;SDS011;44527;47.460;19.016;2024-02-15T17:03:41;38.28;;;19.20;;
58756;SDS011;44527;47.460;19.016;2024-02-15T17:06:43;49.90;;;19.30;;
58756;SDS011;44527;47.460;19.016;2024-02-15T17:09:46;43.83;;;19.87;;
58756;SDS011;44527;47.460;19.016;2024-02-15T17:12:48;43.58;;;20.05;;
58756;SDS011;44527;47.460;19.016;2024-02-15T17:15:50;34.03;;;18.73;;
58756;SDS011;44527;47.460;19.016;2024-02-15T17:18:54;35.72;;;19.55;;
58756;SDS011;44527;47.460;19.016;2024-02-15T17:21:56;35.40;;;19.48;;
58756;SDS011;44527;47.460;19.016;2024-02-15T17:24:59;36.65;;;19.67;;
58756;SDS011;44527;47.460;19.016;2024-02-15T17:28:07;37.33;;;19.50;;
58756;SDS011;44527;47.460;19.016;2024-02-15T17:31:13;40.95;;;19.87;;
58756;SDS011;44527;47.460;19.016;2024-02-15T17:34:17;42.33;;;20.20;;
58756;SDS011;44527;47.460;19.016;2024-02-15T17:37:20;36.38;;;20.27;;
58756;SDS011;44527;47.460;19.016;2024-02-15T17:40:22;45.10;;;20.75;;
58756;SDS011;44527;47.460;19.016;2024-02-15T17:43:25;39.92;;;20.20;;
58756;SDS011;44527;47.460;19.016;2024-02-15T17:46:28;34.28;;;19.67;;
58756;SDS011;44527;47.460;19.016;2024-02-15T17:49:32;45.88;;;21.55;;
58756;SDS011;44527;47.460;19.016;2024-02-15T17:52:34;41.55;;;20.58;;
58756;SDS011;44527;47.460;19.016;2024-02-15T17:55:39;47.47;;;22.87;;
58756;SDS011;44527;47.460;19.016;2024-02-15T17:58:43;42.80;;;21.90;;
58756;SDS011;44527;47.460;19.016;2024-02-15T18:01:49;41.00;;;21.97;;
58756;SDS011;44527;47.460;19.016;2024-02-15T18:04:54;41.33;;;22.75;;
58756;SDS011;44527;47.460;19.016;2024-02-15T18:07:56;51.90;;;22.23;;
58756;SDS011;44527;47.460;19.016;2024-02-15T18:10:59;46.03;;;22.55;;
58756;SDS011;44527;47.460;19.016;2024-02-15T18:14:02;39.20;;;21.40;;
58756;SDS011;44527;47.460;19.016;2024-02-15T18:17:05;45.22;;;22.33;;
58756;SDS011;44527;47.460;19.016;2024-02-15T18:20:07;35.17;;;20.58;;
58756;SDS011;44527;47.460;19.016;2024-02-15T18:23:15;46.10;;;20.85;;
58756;SDS011;44527;47.460;19.016;2024-02-15T18:26:20;44.05;;;20.77;;
58756;SDS011;44527;47.460;19.016;2024-02-15T18:29:23;41.88;;;22.62;;
58756;SDS011;44527;47.460;19.016;2024-02-15T18:32:25;46.22;;;21.42;;
58756;SDS011;44527;47.460;19.016;2024-02-15T18:35:28;41.10;;;21.37;;
58756;SDS011;44527;47.460;19.016;2024-02-15T18:38:31;41.42;;;21.42;;
58756;SDS011;44527;47.460;19.016;2024-02-15T18:41:34;41.55;;;20.67;;
58756;SDS011;44527;47.460;19.016;2024-02-15T18:44:36;39.85;;;20.12;;
58756;SDS011;44527;47.460;19.016;2024-02-15T18:47:39;52.55;;;20.77;;
58756;SDS011;44527;47.460;19.016;2024-02-15T18:50:45;37.53;;;20.67;;
58756;SDS011;44527;47.460;19.016;2024-02-15T18:53:48;41.20;;;20.42;;
58756;SDS011;44527;47.460;19.016;2024-02-15T18:56:51;40.25;;;19.20;;
58756;SDS011;44527;47.460;19.016;2024-02-15T18:59:57;36.90;;;18.23;;
58756;SDS011;44527;47.460;19.016;2024-02-15T19:03:07;38.08;;;19.05;;
58756;SDS011;44527;47.460;19.016;2024-02-15T19:06:11;43.65;;;20.30;;
58756;SDS011;44527;47.460;19.016;2024-02-15T19:09:13;39.70;;;20.33;;
58756;SDS011;44527;47.460;19.016;2024-02-15T19:12:16;42.00;;;20.80;;
58756;SDS011;44527;47.460;19.016;2024-02-15T19:15:19;47.85;;;21.42;;
58756;SDS011;44527;47.460;19.016;2024-02-15T19:18:22;38.95;;;20.10;;
58756;SDS011;44527;47.460;19.016;2024-02-15T19:21:26;40.65;;;20.35;;
58756;SDS011;44527;47.460;19.016;2024-02-15T19:24:28;43.72;;;20.15;;
58756;SDS011;44527;47.460;19.016;2024-02-15T19:27:31;42.65;;;21.37;;
58756;SDS011;44527;47.460;19.016;2024-02-15T19:30:34;51.90;;;20.73;;
58756;SDS011;44527;47.460;19.016;2024-02-15T19:33:38;44.15;;;20.65;;
58756;SDS011;44527;47.460;19.016;2024-02-15T19:36:57;55.15;;;20.10;;
58756;SDS011;44527;47.460;19.016;2024-02-15T19:40:16;40.13;;;19.53;;
58756;SDS011;44527;47.460;19.016;2024-02-15T19:43:21;50.00;;;21.45;;
58756;SDS011;44527;47.460;19.016;2024-02-15T19:46:29;37.97;;;19.85;;
58756;SDS011;44527;47.460;19.016;2024-02-15T19:49:34;43.20;;;21.12;;
58756;SDS011;44527;47.460;19.016;2024-02-15T19:52:36;40.28;;;20.17;;
58756;SDS011;44527;47.460;19.016;2024-02-15T19:55:39;44.65;;;20.42;;
58756;SDS011;44527;47.460;19.016;2024-02-15T19:58:42;46.75;;;21.92;;
58756;SDS011;44527;47.460;19.016;2024-02-15T20:01:44;46.05;;;21.15;;
58756;SDS011;44527;47.460;19.016;2024-02-15T20:04:47;41.65;;;20.37;;
58756;SDS011;44527;47.460;19.016;2024-02-15T20:07:51;39.17;;;20.08;;
58756;SDS011;44527;47.460;19.016;2024-02-15T20:10:54;41.25;;;19.60;;
58756;SDS011;44527;47.460;19.016;2024-02-15T20:13:58;44.28;;;19.65;;
58756;SDS011;44527;47.460;19.016;2024-02-15T20:17:02;39.78;;;20.33;;
58756;SDS011;44527;47.460;19.016;2024-02-15T20:20:04;67.20;;;21.77;;
58756;SDS011;44527;47.460;19.016;2024-02-15T20:23:08;45.45;;;19.87;;
58756;SDS011;44527;47.460;19.016;2024-02-15T20:26:12;39.17;;;19.48;;
58756;SDS011;44527;47.460;19.016;2024-02-15T20:29:15;38.10;;;19.05;;
58756;SDS011;44527;47.460;19.016;2024-02-15T20:32:17;42.35;;;21.25;;
58756;SDS011;44527;47.460;19.016;2024-02-15T20:35:21;43.33;;;20.92;;
58756;SDS011;44527;47.460;19.016;2024-02-15T20:38:24;39.55;;;20.35;;
58756;SDS011;44527;47.460;19.016;2024-02-15T20:41:31;38.20;;;20.92;;
58756;SDS011;44527;47.460;19.016;2024-02-15T20:44:33;40.17;;;20.83;;
58756;SDS011;44527;47.460;19.016;2024-02-15T20:47:36;43.78;;;19.80;;
58756;SDS011;44527;47.460;19.016;2024-02-15T20:50:40;37.67;;;20.08;;
58756;SDS011;44527;47.460;19.016;2024-02-15T20:53:44;38.03;;;20.70;;
58756;SDS011;44527;47.460;19.016;2024-02-15T20:56:52;41.97;;;20.88;;
58756;SDS011;44527;47.460;19.016;2024-02-15T20:59:55;43.92;;;22.55;;
58756;SDS011;44527;47.460;19.016;2024-02-15T21:02:57;48.90;;;20.95;;
58756;SDS011;44527;47.460;19.016;2024-02-15T21:06:01;43.40;;;21.62;;
58756;SDS011;44527;47.460;19.016;2024-02-15T21:09:03;45.22;;;21.45;;
58756;SDS011;44527;47.460;19.016;2024-02-15T21:12:07;42.13;;;21.77;;
58756;SDS011;44527;47.460;19.016;2024-02-15T21:15:11;49.42;;;22.42;;
58756;SDS011;44527;47.460;19.016;2024-02-15T21:18:14;40.00;;;22.62;;
58756;SDS011;44527;47.460;19.016;2024-02-15T21:21:16;44.28;;;22.25;;
58756;SDS011;44527;47.460;19.016;2024-02-15T21:24:19;42.97;;;20.62;;
58756;SDS011;44527;47.460;19.016;2024-02-15T21:27:22;44.83;;;21.67;;
58756;SDS011;44527;47.460;19.016;2024-02-15T21:30:24;39.95;;;20.73;;
58756;SDS011;44527;47.460;19.016;2024-02-15T21:33:27;42.58;;;21.42;;